createdAt,value
2018-09-03T00:02:21.563Z,101258.94
2018-09-03T00:04:54.872Z,101256.59
2018-09-03T00:07:28.297Z,101249.95
2018-09-03T00:10:01.603Z,101247.98
2018-09-03T00:12:35.007Z,101246.93
2018-09-03T00:15:08.293Z,101256.17
2018-09-03T00:17:41.612Z,101253.88
2018-09-03T00:20:14.905Z,101251.59
2018-09-03T00:22:48.218Z,101254.34
2018-09-03T00:25:21.540Z,101252.92
2018-09-03T00:27:54.849Z,101246.95
2018-09-03T00:30:28.142Z,101254.62
2018-09-03T00:33:06.906Z,101245.28
2018-09-03T00:35:45.384Z,101243.36
2018-09-03T00:38:24.085Z,101242.22
2018-09-03T00:41:02.561Z,101247.18
2018-09-03T00:43:41.188Z,101236.73
2018-09-03T00:47:18.525Z,101242.30
2018-09-03T00:49:51.858Z,101238.20
2018-09-03T00:52:25.140Z,101241.39
2018-09-03T00:54:58.480Z,101241.60
2018-09-03T00:57:31.805Z,101235.35
2018-09-03T01:00:05.250Z,101232.16
2018-09-03T01:02:38.561Z,101232.68
2018-09-03T01:05:11.876Z,101229.48
2018-09-03T01:07:45.173Z,101229.55
2018-09-03T01:10:18.472Z,101226.63
2018-09-03T01:12:51.856Z,101224.91
2018-09-03T01:15:26.700Z,101219.31
2018-09-03T01:18:01.637Z,101209.18
2018-09-03T01:20:35.731Z,101208.87
2018-09-03T01:23:09.036Z,101207.42
2018-09-03T01:25:42.333Z,101208.55
2018-09-03T01:28:15.609Z,101208.64
2018-09-03T01:30:48.915Z,101203.97
2018-09-03T01:33:22.305Z,101204.62
2018-09-03T01:35:55.776Z,101206.81
2018-09-03T01:38:29.069Z,101207.88
2018-09-03T01:41:02.389Z,101196.91
2018-09-03T01:43:35.689Z,101199.23
2018-09-03T01:46:08.996Z,101197.23
2018-09-03T01:48:42.699Z,101195.56
2018-09-03T01:51:16.025Z,101201.39
2018-09-03T01:53:49.313Z,101197.64
2018-09-03T01:56:22.744Z,101191.48
2018-09-03T01:58:56.036Z,101191.16
2018-09-03T02:01:29.364Z,101185.28
2018-09-03T02:04:02.669Z,101193.42
2018-09-03T02:06:35.991Z,101187.73
2018-09-03T02:09:10.563Z,101190.80
2018-09-03T02:11:43.864Z,101191.88
2018-09-03T02:14:17.199Z,101194.27
2018-09-03T02:16:50.493Z,101189.70
2018-09-03T02:19:23.805Z,101190.84
2018-09-03T02:21:57.105Z,101188.12
2018-09-03T02:24:30.403Z,101185.39
2018-09-03T02:27:03.710Z,101183.69
2018-09-03T02:29:37.033Z,101181.56
2018-09-03T02:32:10.316Z,101172.20
2018-09-03T02:34:43.625Z,101185.67
2018-09-03T02:37:17.229Z,101179.28
2018-09-03T02:39:50.553Z,101185.49
2018-09-03T02:42:23.837Z,101183.13
2018-09-03T02:44:57.142Z,101178.03
2018-09-03T02:47:30.436Z,101177.71
2018-09-03T02:50:03.785Z,101173.41
2018-09-03T02:52:37.203Z,101180.80
2018-09-03T02:55:10.625Z,101174.78
2018-09-03T02:57:43.929Z,101169.37
2018-09-03T03:00:17.245Z,101163.92
2018-09-03T03:02:50.564Z,101167.43
2018-09-03T03:05:23.869Z,101166.27
2018-09-03T03:07:57.586Z,101153.69
2018-09-03T03:10:30.926Z,101157.24
2018-09-03T03:13:04.229Z,101151.69
2018-09-03T03:15:37.616Z,101163.72
2018-09-03T03:18:10.920Z,101162.28
2018-09-03T03:20:44.233Z,101157.95
2018-09-03T03:23:17.521Z,101158.64
2018-09-03T03:25:50.845Z,101158.27
2018-09-03T03:28:24.154Z,101158.64
2018-09-03T03:30:57.473Z,101156.46
2018-09-03T03:33:30.811Z,101158.13
2018-09-03T03:36:06.085Z,101153.01
2018-09-03T03:38:39.417Z,101152.03
2018-09-03T03:41:12.745Z,101152.13
2018-09-03T03:43:46.072Z,101150.74
2018-09-03T03:46:19.384Z,101145.56
2018-09-03T03:48:52.671Z,101141.68
2018-09-03T03:51:26.012Z,101142.65
2018-09-03T03:53:59.320Z,101137.56
2018-09-03T03:56:33.224Z,101136.27
2018-09-03T03:59:07.001Z,101131.55
2018-09-03T04:01:40.345Z,101132.01
2018-09-03T04:04:13.629Z,101129.09
2018-09-03T04:06:46.981Z,101118.66
2018-09-03T04:09:20.314Z,101115.70
2018-09-03T04:11:53.641Z,101117.83
2018-09-03T04:14:26.938Z,101114.86
2018-09-03T04:17:00.263Z,101125.53
2018-09-03T04:19:33.596Z,101124.94
2018-09-03T04:22:06.913Z,101124.48
2018-09-03T04:24:40.202Z,101125.17
2018-09-03T04:27:13.538Z,101120.78
2018-09-03T04:29:46.855Z,101122.91
2018-09-03T04:32:20.174Z,101123.74
2018-09-03T04:34:53.519Z,101121.98
2018-09-03T04:37:26.831Z,101120.78
2018-09-03T04:40:00.119Z,101117.41
2018-09-03T04:42:33.665Z,101116.48
2018-09-03T04:45:07.000Z,101116.81
2018-09-03T04:47:40.309Z,101112.41
2018-09-03T04:50:13.616Z,101117.05
2018-09-03T04:52:46.933Z,101114.83
2018-09-03T04:55:20.466Z,101114.83
2018-09-03T04:57:53.752Z,101110.80
2018-09-03T05:00:27.044Z,101116.67
2018-09-03T05:03:00.369Z,101109.55
2018-09-03T05:05:33.831Z,101109.31
2018-09-03T05:08:07.041Z,101109.95
2018-09-03T05:10:40.351Z,101098.53
2018-09-03T05:13:13.677Z,101098.61
2018-09-03T05:15:46.973Z,101102.48
2018-09-03T05:18:20.330Z,101107.28
2018-09-03T05:20:53.652Z,101102.62
2018-09-03T05:23:26.999Z,101107.04
2018-09-03T05:26:00.458Z,101111.00
2018-09-03T05:28:33.808Z,101109.09
2018-09-03T05:31:07.144Z,101106.72
2018-09-03T05:33:40.468Z,101111.98
2018-09-03T05:36:13.784Z,101111.27
2018-09-03T05:38:49.285Z,101115.78
2018-09-03T05:41:22.727Z,101114.80
2018-09-03T05:43:56.129Z,101110.81
2018-09-03T05:46:29.392Z,101106.92
2018-09-03T05:49:02.809Z,101108.53
2018-09-03T05:51:37.157Z,101110.10
2018-09-03T05:54:10.473Z,101106.83
2018-09-03T05:56:43.765Z,101105.75
2018-09-03T05:59:17.125Z,101109.94
2018-09-03T06:01:50.397Z,101116.02
2018-09-03T06:04:23.729Z,101120.69
2018-09-03T06:06:57.025Z,101112.71
2018-09-03T06:09:30.360Z,101113.86
2018-09-03T06:12:03.683Z,101102.10
2018-09-03T06:14:36.993Z,101107.34
2018-09-03T06:17:10.293Z,101109.72
2018-09-03T06:19:43.617Z,101113.19
2018-09-03T06:22:16.920Z,101113.30
2018-09-03T06:24:50.273Z,101119.36
2018-09-03T06:27:23.581Z,101123.40
2018-09-03T06:29:56.928Z,101118.87
2018-09-03T06:32:30.234Z,101124.37
2018-09-03T06:35:03.578Z,101121.44
2018-09-03T06:37:36.882Z,101120.34
2018-09-03T06:40:10.218Z,101110.82
2018-09-03T06:42:43.516Z,101111.32
2018-09-03T06:45:16.862Z,101122.74
2018-09-03T06:47:50.163Z,101121.14
2018-09-03T06:50:23.500Z,101127.30
2018-09-03T06:52:56.792Z,101123.77
2018-09-03T06:55:30.114Z,101120.83
2018-09-03T06:58:04.364Z,101119.55
2018-09-03T07:00:37.700Z,101118.73
2018-09-03T07:03:11.006Z,101115.86
2018-09-03T07:05:44.344Z,101111.79
2018-09-03T07:08:17.916Z,101114.94
2018-09-03T07:10:51.265Z,101119.25
2018-09-03T07:13:24.579Z,101111.06
2018-09-03T07:15:57.901Z,101100.32
2018-09-03T07:18:31.277Z,101099.96
2018-09-03T07:21:04.625Z,101101.11
2018-09-03T07:23:37.952Z,101099.98
2018-09-03T07:26:11.276Z,101097.24
2018-09-03T07:28:44.683Z,101099.52
2018-09-03T07:31:17.950Z,101099.14
2018-09-03T07:33:51.268Z,101091.16
2018-09-03T07:36:24.589Z,101091.47
2018-09-03T07:38:57.915Z,101097.41
2018-09-03T07:41:31.484Z,101104.27
2018-09-03T07:44:04.863Z,101105.28
2018-09-03T07:46:38.172Z,101107.52
2018-09-03T07:49:11.483Z,101102.16
2018-09-03T07:51:44.784Z,101108.02
2018-09-03T07:54:18.109Z,101104.20
2018-09-03T07:56:51.421Z,101102.05
2018-09-03T07:59:24.742Z,101099.06
2018-09-03T08:01:58.100Z,101091.50
2018-09-03T08:04:31.401Z,101092.94
2018-09-03T08:07:04.729Z,101086.36
2018-09-03T08:09:38.025Z,101090.58
2018-09-03T08:12:11.298Z,101083.42
2018-09-03T08:14:44.595Z,101076.87
2018-09-03T08:17:17.880Z,101077.89
2018-09-03T08:19:51.201Z,101079.74
2018-09-03T08:22:24.486Z,101078.44
2018-09-03T08:24:57.794Z,101075.58
2018-09-03T08:27:31.177Z,101066.44
2018-09-03T08:30:05.210Z,101068.23
2018-09-03T08:32:38.569Z,101055.95
2018-09-03T08:35:12.140Z,101053.45
2018-09-03T08:37:45.432Z,101053.25
2018-09-03T08:40:18.756Z,101050.09
2018-09-03T08:42:52.038Z,101054.75
2018-09-03T08:45:25.331Z,101044.39
2018-09-03T08:47:58.634Z,101042.03
2018-09-03T08:50:31.961Z,101036.84
2018-09-03T08:53:05.266Z,101042.09
2018-09-03T08:55:38.569Z,101038.25
2018-09-03T08:58:11.860Z,101032.78
2018-09-03T09:00:45.168Z,101032.09
2018-09-03T09:03:23.872Z,101028.48
2018-09-03T09:05:57.225Z,101031.10
2018-09-03T09:08:30.497Z,101037.44
2018-09-03T09:11:04.047Z,101033.37
2018-09-03T09:13:37.373Z,101039.11
2018-09-03T09:16:10.738Z,101032.43
2018-09-03T09:18:44.032Z,101028.23
2018-09-03T09:21:17.353Z,101035.27
2018-09-03T09:23:50.668Z,101026.65
2018-09-03T09:26:24.293Z,101021.30
2018-09-03T09:28:57.593Z,101019.39
2018-09-03T09:31:31.228Z,101019.44
2018-09-03T09:34:04.569Z,101024.48
2018-09-03T09:36:37.901Z,101014.78
2018-09-03T09:39:11.237Z,101016.45
2018-09-03T09:41:44.550Z,101010.52
2018-09-03T09:44:17.847Z,101011.16
2018-09-03T09:46:51.183Z,101018.20
2018-09-03T09:49:24.533Z,101013.29
2018-09-03T09:51:57.828Z,101010.87
2018-09-03T09:54:31.120Z,101004.79
2018-09-03T09:57:04.702Z,101009.35
2018-09-03T09:59:37.996Z,101003.27
2018-09-03T10:02:11.332Z,101002.41
2018-09-03T10:04:44.841Z,101011.78
2018-09-03T10:07:18.157Z,100995.30
2018-09-03T10:09:51.452Z,100996.22
2018-09-03T10:12:29.882Z,100986.04
2018-09-03T10:15:03.671Z,100988.17
2018-09-03T10:17:37.188Z,100984.17
2018-09-03T10:20:10.505Z,100974.23
2018-09-03T10:22:43.816Z,100973.61
2018-09-03T10:25:17.244Z,100976.16
2018-09-03T10:27:50.581Z,100974.20
2018-09-03T10:30:23.973Z,100967.45
2018-09-03T10:32:57.365Z,100960.78
2018-09-03T10:35:30.669Z,100972.22
2018-09-03T10:38:04.070Z,100961.49
2018-09-03T10:40:37.461Z,100955.25
2018-09-03T10:43:10.854Z,100952.26
2018-09-03T10:45:46.256Z,100958.03
2018-09-03T10:48:19.741Z,100948.72
2018-09-03T10:50:53.126Z,100946.48
2018-09-03T10:53:26.537Z,100942.37
2018-09-03T10:55:59.962Z,100938.80
2018-09-03T10:58:33.340Z,100938.00
2018-09-03T11:01:06.625Z,100934.15
2018-09-03T11:03:40.081Z,100939.28
2018-09-03T11:06:13.517Z,100923.22
2018-09-03T11:08:47.064Z,100925.30
2018-09-03T11:11:21.342Z,100923.19
2018-09-03T11:13:54.670Z,100924.27
2018-09-03T11:16:27.981Z,100919.73
2018-09-03T11:19:01.836Z,100909.98
2018-09-03T11:21:35.314Z,100901.59
2018-09-03T11:24:08.471Z,100903.84
2018-09-03T11:26:41.858Z,100902.27
2018-09-03T11:29:16.781Z,100906.66
2018-09-03T11:31:50.087Z,100915.16
2018-09-03T11:34:23.413Z,100907.16
2018-09-03T11:36:56.781Z,100905.44
2018-09-03T11:39:30.098Z,100896.58
2018-09-03T11:42:04.964Z,100907.63
2018-09-03T11:44:38.394Z,100900.28
2018-09-03T11:47:11.780Z,100897.35
2018-09-03T11:49:45.069Z,100899.93
2018-09-03T11:52:18.362Z,100899.39
2018-09-03T11:54:52.807Z,100899.63
2018-09-03T11:57:26.151Z,100890.97
2018-09-03T11:59:59.470Z,100887.47
2018-09-03T12:02:32.793Z,100884.50
2018-09-03T12:05:06.590Z,100880.00
2018-09-03T12:07:40.117Z,100882.63
2018-09-03T12:10:13.416Z,100880.65
2018-09-03T12:12:46.721Z,100866.66
2018-09-03T12:15:26.824Z,100866.77
2018-09-03T12:18:00.095Z,100871.24
2018-09-03T12:20:33.560Z,100871.02
2018-09-03T12:23:06.855Z,100871.76
2018-09-03T12:25:40.157Z,100865.69
2018-09-03T12:28:13.472Z,100865.24
2018-09-03T12:30:46.784Z,100860.16
2018-09-03T12:33:20.073Z,100861.63
2018-09-03T12:35:53.396Z,100846.55
2018-09-03T12:38:26.689Z,100838.80
2018-09-03T12:41:00.014Z,100854.94
2018-09-03T12:43:33.406Z,100851.83
2018-09-03T12:46:07.880Z,100846.27
2018-09-03T12:48:41.164Z,100844.32
2018-09-03T12:51:14.510Z,100852.42
2018-09-03T12:53:49.473Z,100852.45
2018-09-03T12:56:22.790Z,100843.34
2018-09-03T12:58:56.629Z,100844.02
2018-09-03T13:01:29.960Z,100849.34
2018-09-03T13:04:03.909Z,100840.16
2018-09-03T13:06:37.248Z,100842.93
2018-09-03T13:09:10.661Z,100833.52
2018-09-03T13:11:43.993Z,100843.23
2018-09-03T13:14:17.332Z,100832.70
2018-09-03T13:16:52.004Z,100829.77
2018-09-03T13:19:25.368Z,100835.11
2018-09-03T13:21:59.316Z,100833.28
2018-09-03T13:24:32.810Z,100841.44
2018-09-03T13:27:06.185Z,100833.09
2018-09-03T13:29:39.497Z,100833.33
2018-09-03T13:32:12.797Z,100827.28
2018-09-03T13:34:46.157Z,100814.51
2018-09-03T13:37:19.469Z,100821.06
2018-09-03T13:39:52.875Z,100823.87
2018-09-03T13:42:26.262Z,100816.53
2018-09-03T13:44:59.780Z,100814.72
2018-09-03T13:47:33.109Z,100812.00
2018-09-03T13:50:06.809Z,100807.16
2018-09-03T13:52:41.075Z,100810.06
2018-09-03T13:55:14.527Z,100812.07
2018-09-03T13:57:47.772Z,100808.86
2018-09-03T14:00:21.085Z,100808.17
2018-09-03T14:02:54.384Z,100805.17
2018-09-03T14:05:27.732Z,100805.34
2018-09-03T14:08:01.154Z,100800.59
2018-09-03T14:10:34.466Z,100794.82
2018-09-03T14:13:07.862Z,100795.21
2018-09-03T14:15:41.205Z,100790.47
2018-09-03T14:18:14.503Z,100788.95
2018-09-03T14:20:48.055Z,100794.20
2018-09-03T14:23:21.384Z,100789.70
2018-09-03T14:25:54.826Z,100792.69
2018-09-03T14:28:28.678Z,100799.20
2018-09-03T14:31:02.080Z,100798.64
2018-09-03T14:33:35.385Z,100792.02
2018-09-03T14:36:08.836Z,100785.21
2018-09-03T14:38:42.295Z,100786.58
2018-09-03T14:41:15.613Z,100785.17
2018-09-03T14:43:48.949Z,100775.80
2018-09-03T14:46:22.300Z,100777.81
2018-09-03T14:48:55.623Z,100779.52
2018-09-03T14:51:29.059Z,100775.84
2018-09-03T14:54:02.347Z,100774.71
2018-09-03T14:56:35.660Z,100775.43
2018-09-03T14:59:09.013Z,100779.02
2018-09-03T15:01:42.340Z,100773.09
2018-09-03T15:04:15.678Z,100778.78
2018-09-03T15:06:49.021Z,100771.06
2018-09-03T15:09:22.363Z,100770.08
2018-09-03T15:11:55.677Z,100774.23
2018-09-03T15:14:28.970Z,100774.26
2018-09-03T15:17:02.353Z,100779.23
2018-09-03T15:19:35.639Z,100772.28
2018-09-03T15:22:08.985Z,100775.25
2018-09-03T15:24:42.327Z,100781.07
2018-09-03T15:27:15.619Z,100777.72
2018-09-03T15:29:48.892Z,100768.16
2018-09-03T15:32:22.218Z,100764.12
2018-09-03T15:34:55.565Z,100762.91
2018-09-03T15:37:28.886Z,100765.21
2018-09-03T15:40:02.205Z,100771.72
2018-09-03T15:42:35.681Z,100764.55
2018-09-03T15:45:09.070Z,100762.68
2018-09-03T15:47:42.385Z,100760.64
2018-09-03T15:50:16.526Z,100761.36
2018-09-03T15:52:50.022Z,100760.31
2018-09-03T15:55:23.536Z,100759.98
2018-09-03T15:57:57.372Z,100763.40
2018-09-03T16:00:30.660Z,100754.45
2018-09-03T16:03:04.170Z,100757.14
2018-09-03T16:05:37.431Z,100758.56
2018-09-03T16:08:10.877Z,100758.28
2018-09-03T16:10:44.169Z,100761.74
2018-09-03T16:13:17.503Z,100766.02
2018-09-03T16:15:50.994Z,100772.16
2018-09-03T16:18:24.437Z,100780.71
2018-09-03T16:20:57.857Z,100769.52
2018-09-03T16:23:31.413Z,100768.03
2018-09-03T16:26:04.714Z,100768.77
2018-09-03T16:28:38.047Z,100768.44
2018-09-03T16:31:11.358Z,100770.94
2018-09-03T16:33:44.789Z,100768.97
2018-09-03T16:36:18.114Z,100771.84
2018-09-03T16:38:51.489Z,100764.62
2018-09-03T16:41:24.798Z,100767.87
2018-09-03T16:43:58.122Z,100767.33
2018-09-03T16:46:31.474Z,100758.16
2018-09-03T16:49:04.911Z,100759.25
2018-09-03T16:51:38.127Z,100760.31
2018-09-03T16:54:11.473Z,100755.67
2018-09-03T16:56:44.762Z,100761.95
2018-09-03T16:59:18.186Z,100760.39
2018-09-03T17:01:52.427Z,100756.63
2018-09-03T17:04:25.846Z,100754.34
2018-09-03T17:06:59.213Z,100760.73
2018-09-03T17:09:32.580Z,100759.14
2018-09-03T17:12:05.878Z,100758.91
2018-09-03T17:14:39.198Z,100759.76
2018-09-03T17:17:12.500Z,100761.80
2018-09-03T17:19:45.890Z,100757.27
2018-09-03T17:22:19.326Z,100760.17
2018-09-03T17:24:52.712Z,100766.73
2018-09-03T17:27:26.027Z,100760.73
2018-09-03T17:29:59.469Z,100756.45
2018-09-03T17:32:32.883Z,100759.52
2018-09-03T17:35:06.248Z,100758.75
2018-09-03T17:37:40.094Z,100761.92
2018-09-03T17:40:13.525Z,100766.49
2018-09-03T17:42:46.927Z,100767.76
2018-09-03T17:45:20.240Z,100769.27
2018-09-03T17:47:53.543Z,100765.53
2018-09-03T17:53:14.768Z,100771.22
2018-09-03T17:55:48.073Z,100771.78
2018-09-03T17:58:21.411Z,100775.53
2018-09-03T18:00:54.756Z,100769.17
2018-09-03T18:03:28.060Z,100770.22
2018-09-03T18:06:01.387Z,100769.45
2018-09-03T18:08:34.740Z,100772.37
2018-09-03T18:11:08.089Z,100770.19
2018-09-03T18:13:42.050Z,100774.97
2018-09-03T18:16:15.468Z,100779.55
2018-09-03T18:18:48.808Z,100783.80
2018-09-03T18:21:23.094Z,100783.59
2018-09-03T18:23:56.500Z,100773.98
2018-09-03T18:26:29.809Z,100781.31
2018-09-03T18:29:03.221Z,100786.00
2018-09-03T18:31:36.544Z,100784.73
2018-09-03T18:34:09.845Z,100783.69
2018-09-03T18:36:43.365Z,100783.25
2018-09-03T18:39:16.836Z,100792.43
2018-09-03T18:41:50.197Z,100788.20
2018-09-03T18:44:24.384Z,100793.45
2018-09-03T18:46:57.785Z,100795.38
2018-09-03T18:49:31.157Z,100806.30
2018-09-03T18:52:04.546Z,100803.34
2018-09-03T18:54:38.265Z,100802.85
2018-09-03T18:57:11.715Z,100807.73
2018-09-03T18:59:45.064Z,100806.54
2018-09-03T19:02:18.443Z,100803.81
2018-09-03T19:04:51.765Z,100804.05
2018-09-03T19:07:25.284Z,100804.89
2018-09-03T19:09:58.678Z,100807.12
2018-09-03T19:12:31.949Z,100809.23
2018-09-03T19:15:05.784Z,100809.84
2018-09-03T19:17:39.116Z,100812.45
2018-09-03T19:20:12.512Z,100812.81
2018-09-03T19:22:45.928Z,100818.86
2018-09-03T19:25:19.222Z,100821.22
2018-09-03T19:29:17.013Z,100823.50
2018-09-03T19:31:50.344Z,100825.12
2018-09-03T19:34:23.646Z,100827.60
2018-09-03T19:36:56.968Z,100826.27
2018-09-03T19:39:30.316Z,100828.19
2018-09-03T19:42:03.651Z,100828.98
2018-09-03T19:44:37.029Z,100831.95
2018-09-03T19:47:10.500Z,100832.97
2018-09-03T19:49:43.850Z,100844.11
2018-09-03T19:52:17.216Z,100837.58
2018-09-03T19:54:51.584Z,100836.02
2018-09-03T19:57:24.994Z,100837.87
2018-09-03T19:59:58.351Z,100833.50
2018-09-03T20:02:31.736Z,100835.73
2018-09-03T20:05:05.069Z,100835.73
2018-09-03T20:07:38.444Z,100839.36
2018-09-03T20:10:11.837Z,100839.11
2018-09-03T20:12:45.268Z,100840.54
2018-09-03T20:15:23.952Z,100844.71
2018-09-03T20:17:57.273Z,100847.42
2018-09-03T20:20:30.633Z,100850.98
2018-09-03T20:23:04.029Z,100850.47
2018-09-03T20:25:37.389Z,100856.52
2018-09-03T20:28:10.701Z,100855.69
2018-09-03T20:30:44.100Z,100852.69
2018-09-03T20:33:17.312Z,100856.00
2018-09-03T20:35:50.728Z,100852.08
2018-09-03T20:38:24.085Z,100854.78
2018-09-03T20:40:57.484Z,100857.47
2018-09-03T20:43:30.791Z,100862.28
2018-09-03T20:46:04.419Z,100865.45
2018-09-03T20:48:37.747Z,100869.02
2018-09-03T20:51:11.035Z,100868.28
2018-09-03T20:53:44.464Z,100869.44
2018-09-03T20:56:17.760Z,100860.53
2018-09-03T20:58:51.196Z,100860.98
2018-09-03T21:01:24.499Z,100860.55
2018-09-03T21:03:57.876Z,100863.55
2018-09-03T21:06:31.453Z,100867.61
2018-09-03T21:09:05.673Z,100873.25
2018-09-03T21:11:38.958Z,100869.19
2018-09-03T21:14:12.249Z,100873.66
2018-09-03T21:16:45.597Z,100869.97
2018-09-03T21:19:18.901Z,100876.07
2018-09-03T21:21:52.200Z,100868.58
2018-09-03T21:24:25.494Z,100870.44
2018-09-03T21:26:58.781Z,100872.07
2018-09-03T21:29:32.116Z,100874.32
2018-09-03T21:32:05.734Z,100882.39
2018-09-03T21:34:39.052Z,100876.56
2018-09-03T21:37:12.352Z,100879.16
2018-09-03T21:39:45.741Z,100879.48
2018-09-03T21:42:19.270Z,100884.90
2018-09-03T21:44:52.710Z,100881.75
2018-09-03T21:47:26.000Z,100875.00
2018-09-03T21:49:59.837Z,100878.69
2018-09-03T21:52:33.436Z,100874.59
2018-09-03T21:55:06.780Z,100874.88
2018-09-03T21:57:40.077Z,100876.56
2018-09-03T22:00:13.432Z,100873.21
2018-09-03T22:02:46.767Z,100878.89
2018-09-03T22:05:20.069Z,100881.22
2018-09-03T22:07:53.389Z,100878.66
2018-09-03T22:10:26.697Z,100883.16
2018-09-03T22:13:00.155Z,100890.41
2018-09-03T22:15:33.476Z,100894.23
2018-09-03T22:18:06.781Z,100884.64
2018-09-03T22:20:40.207Z,100879.70
2018-09-03T22:23:13.538Z,100888.16
2018-09-03T22:25:46.875Z,100888.03
2018-09-03T22:28:20.216Z,100887.68
2018-09-03T22:30:53.551Z,100890.12
2018-09-03T22:33:26.954Z,100891.14
2018-09-03T22:36:00.386Z,100886.60
2018-09-03T22:38:33.953Z,100884.19
2018-09-03T22:41:07.470Z,100887.93
2018-09-03T22:43:41.024Z,100879.02
2018-09-03T22:46:14.461Z,100878.10
2018-09-03T22:48:48.083Z,100879.34
2018-09-03T22:51:21.487Z,100874.97
2018-09-03T22:53:55.115Z,100877.39
2018-09-03T22:56:28.547Z,100876.45
2018-09-03T22:59:02.150Z,100877.39
2018-09-03T23:01:35.627Z,100883.70
2018-09-03T23:04:09.079Z,100881.86
2018-09-03T23:06:42.704Z,100877.23
2018-09-03T23:09:16.029Z,100878.37
2018-09-03T23:11:49.341Z,100873.47
2018-09-03T23:14:22.651Z,100871.43
2018-09-03T23:16:55.969Z,100870.70
2018-09-03T23:19:29.284Z,100872.73
2018-09-03T23:22:02.663Z,100874.31
2018-09-03T23:24:36.038Z,100871.87
2018-09-03T23:27:09.337Z,100864.26
2018-09-03T23:29:42.725Z,100860.94
2018-09-03T23:32:16.035Z,100863.53
2018-09-03T23:34:49.448Z,100868.52
2018-09-03T23:37:23.594Z,100861.30
2018-09-03T23:39:56.912Z,100867.14
2018-09-03T23:42:30.232Z,100863.89
2018-09-03T23:45:04.305Z,100861.83
2018-09-03T23:47:37.629Z,100857.58
2018-09-03T23:50:10.969Z,100861.36
2018-09-03T23:52:44.320Z,100855.16
2018-09-03T23:55:17.695Z,100854.86
2018-09-03T23:57:51.016Z,100853.67
